createdAt,value
2023-08-11T00:01:26.089Z,17.44
2023-08-11T00:03:53.418Z,17.40
2023-08-11T00:06:20.681Z,17.44
2023-08-11T00:08:47.880Z,17.41
2023-08-11T00:11:15.065Z,17.63
2023-08-11T00:13:42.632Z,17.43
2023-08-11T00:16:10.763Z,17.66
2023-08-11T00:18:38.188Z,17.54
2023-08-11T00:21:05.418Z,17.53
2023-08-11T00:23:32.958Z,17.64
2023-08-11T00:26:00.155Z,17.60
2023-08-11T00:28:28.272Z,17.62
2023-08-11T00:30:55.673Z,17.52
2023-08-11T00:33:22.952Z,17.58
2023-08-11T00:35:50.304Z,17.39
2023-08-11T00:38:17.609Z,17.35
2023-08-11T00:40:45.427Z,17.54
2023-08-11T00:43:12.630Z,17.43
2023-08-11T00:45:46.145Z,17.53
2023-08-11T00:48:13.827Z,17.70
2023-08-11T00:50:42.226Z,17.59
2023-08-11T00:53:09.419Z,17.62
2023-08-11T00:55:37.290Z,17.67
2023-08-11T00:58:06.503Z,17.50
2023-08-11T01:00:33.898Z,17.41
2023-08-11T01:03:01.319Z,17.52
2023-08-11T01:05:36.662Z,17.51
2023-08-11T01:08:35.528Z,17.64
2023-08-11T01:11:20.384Z,17.43
2023-08-11T01:13:57.287Z,17.42
2023-08-11T01:16:25.157Z,17.42
2023-08-11T01:18:53.213Z,17.56
2023-08-11T01:21:25.319Z,17.59
2023-08-11T01:23:54.371Z,17.58
2023-08-11T01:26:22.404Z,17.54
2023-08-11T01:28:54.985Z,17.56
2023-08-11T01:31:22.295Z,17.56
2023-08-11T01:33:49.496Z,17.59
2023-08-11T01:36:16.918Z,17.61
2023-08-11T01:38:44.126Z,17.42
2023-08-11T01:41:11.371Z,17.60
2023-08-11T01:43:39.876Z,17.52
2023-08-11T01:46:07.558Z,17.66
2023-08-11T01:48:35.501Z,17.50
2023-08-11T01:51:03.344Z,17.61
2023-08-11T01:53:30.619Z,17.55
2023-08-11T01:55:58.139Z,17.63
2023-08-11T01:58:25.702Z,17.70
2023-08-11T02:00:53.054Z,17.42
2023-08-11T02:03:20.372Z,17.63
2023-08-11T02:05:47.709Z,17.35
2023-08-11T02:08:18.752Z,17.56
2023-08-11T02:10:46.591Z,17.61
2023-08-11T02:13:13.897Z,17.70
2023-08-11T02:15:41.249Z,17.62
2023-08-11T02:18:08.469Z,17.63
2023-08-11T02:20:35.933Z,17.43
2023-08-11T02:23:03.253Z,17.58
2023-08-11T02:25:30.524Z,17.43
2023-08-11T02:27:57.743Z,17.39
2023-08-11T02:30:25.153Z,17.34
2023-08-11T02:32:52.450Z,17.30
2023-08-11T02:35:19.684Z,17.58
2023-08-11T02:37:47.043Z,17.72
2023-08-11T02:40:15.892Z,17.51
2023-08-11T02:42:54.251Z,17.65
2023-08-11T02:45:22.169Z,17.64
2023-08-11T02:47:51.053Z,17.48
2023-08-11T02:50:18.934Z,17.70
2023-08-11T02:52:46.245Z,17.72
2023-08-11T02:55:13.563Z,17.71
2023-08-11T02:57:40.891Z,17.76
2023-08-11T03:00:14.071Z,17.69
2023-08-11T03:02:43.367Z,17.73
2023-08-11T03:05:11.254Z,17.66
2023-08-11T03:07:39.502Z,17.73
2023-08-11T03:10:07.841Z,17.60
2023-08-11T03:12:35.066Z,17.67
2023-08-11T03:15:03.653Z,17.71
2023-08-11T03:17:31.120Z,17.67
2023-08-11T03:19:58.591Z,17.27
2023-08-11T03:22:25.797Z,17.23
2023-08-11T03:24:52.992Z,17.54
2023-08-11T03:27:20.244Z,17.51
2023-08-11T03:29:47.509Z,17.14
2023-08-11T03:32:15.650Z,17.40
2023-08-11T03:34:42.914Z,17.37
2023-08-11T03:37:10.147Z,17.58
2023-08-11T03:39:37.570Z,17.52
2023-08-11T03:42:05.044Z,17.65
2023-08-11T03:44:32.965Z,17.16
2023-08-11T03:47:00.306Z,17.57
2023-08-11T03:49:27.571Z,17.59
2023-08-11T03:51:54.843Z,17.69
2023-08-11T03:54:31.847Z,17.67
2023-08-11T03:57:07.768Z,17.75
2023-08-11T03:59:35.396Z,17.71
2023-08-11T04:02:02.627Z,17.74
2023-08-11T04:04:29.794Z,17.69
2023-08-11T04:06:58.284Z,17.69
2023-08-11T04:09:25.482Z,17.66
2023-08-11T04:11:52.718Z,17.69
2023-08-11T04:14:20.016Z,17.75
2023-08-11T04:16:48.573Z,17.76
2023-08-11T04:19:15.894Z,17.69
2023-08-11T04:21:43.374Z,17.56
2023-08-11T04:24:10.669Z,17.68
2023-08-11T04:26:37.864Z,17.74
2023-08-11T04:29:05.181Z,17.67
2023-08-11T04:31:32.522Z,17.68
2023-08-11T04:34:00.235Z,17.50
2023-08-11T04:36:28.873Z,17.45
2023-08-11T04:38:56.384Z,17.44
2023-08-11T04:41:23.711Z,17.68
2023-08-11T04:43:51.118Z,17.48
2023-08-11T04:46:18.358Z,17.19
2023-08-11T04:48:46.046Z,17.59
2023-08-11T04:51:13.272Z,17.23
2023-08-11T04:53:40.575Z,17.47
2023-08-11T04:56:07.845Z,17.45
2023-08-11T04:58:35.115Z,17.67
2023-08-11T05:01:04.888Z,17.73
2023-08-11T05:03:32.463Z,17.79
2023-08-11T05:05:59.772Z,17.80
2023-08-11T05:08:27.007Z,17.85
2023-08-11T05:10:54.182Z,17.81
2023-08-11T05:13:22.069Z,17.84
2023-08-11T05:15:49.262Z,17.89
2023-08-11T05:18:16.478Z,17.51
2023-08-11T05:20:44.966Z,17.78
2023-08-11T05:23:12.182Z,17.86
2023-08-11T05:25:39.866Z,17.93
2023-08-11T05:28:07.062Z,17.98
2023-08-11T05:30:34.322Z,17.84
2023-08-11T05:33:01.661Z,17.59
2023-08-11T05:35:30.360Z,18.01
2023-08-11T05:37:58.597Z,18.11
2023-08-11T05:40:25.972Z,18.15
2023-08-11T05:42:53.223Z,17.96
2023-08-11T05:45:20.465Z,17.72
2023-08-11T05:47:47.764Z,17.91
2023-08-11T05:50:15.042Z,17.79
2023-08-11T05:52:42.232Z,17.95
2023-08-11T05:55:09.657Z,18.11
2023-08-11T05:57:36.904Z,18.19
2023-08-11T06:00:06.059Z,18.00
2023-08-11T06:02:33.515Z,18.16
2023-08-11T06:05:00.718Z,18.24
2023-08-11T06:07:27.943Z,18.33
2023-08-11T06:09:55.300Z,18.37
2023-08-11T06:12:22.548Z,18.49
2023-08-11T06:14:49.773Z,18.29
2023-08-11T06:17:17.286Z,18.01
2023-08-11T06:19:44.575Z,18.21
2023-08-11T06:22:12.003Z,18.34
2023-08-11T06:24:39.684Z,18.22
2023-08-11T06:27:07.536Z,18.07
2023-08-11T06:29:35.013Z,18.45
2023-08-11T06:32:02.269Z,18.62
2023-08-11T06:34:29.446Z,18.54
2023-08-11T06:36:56.656Z,18.75
2023-08-11T06:39:23.845Z,18.60
2023-08-11T06:41:51.223Z,18.69
2023-08-11T06:44:18.470Z,18.64
2023-08-11T06:46:45.703Z,18.72
2023-08-11T06:49:12.880Z,18.74
2023-08-11T06:51:40.086Z,18.96
2023-08-11T06:54:07.344Z,19.01
2023-08-11T06:56:34.615Z,19.12
2023-08-11T06:59:01.881Z,19.10
2023-08-11T07:01:29.155Z,19.09
2023-08-11T07:03:56.456Z,19.13
2023-08-11T07:06:23.680Z,19.41
2023-08-11T07:08:50.967Z,19.27
2023-08-11T07:11:18.237Z,19.57
2023-08-11T07:13:45.438Z,19.66
2023-08-11T07:16:12.644Z,19.56
2023-08-11T07:18:39.850Z,19.60
2023-08-11T07:21:07.101Z,19.67
2023-08-11T07:23:34.369Z,19.82
2023-08-11T07:26:01.575Z,19.90
2023-08-11T07:28:28.892Z,19.77
2023-08-11T07:30:56.163Z,20.03
2023-08-11T07:33:23.397Z,20.01
2023-08-11T07:35:50.579Z,19.84
2023-08-11T07:38:18.911Z,20.11
2023-08-11T07:40:46.115Z,20.23
2023-08-11T07:43:13.332Z,20.68
2023-08-11T07:45:40.638Z,21.95
2023-08-11T07:48:08.400Z,23.11
2023-08-11T07:50:38.999Z,24.56
2023-08-11T07:53:06.932Z,25.09
2023-08-11T07:55:34.181Z,25.44
2023-08-11T07:58:01.511Z,26.10
2023-08-11T08:00:28.740Z,26.85
2023-08-11T08:02:56.618Z,26.81
2023-08-11T08:05:24.192Z,27.39
2023-08-11T08:07:51.450Z,28.50
2023-08-11T08:10:21.210Z,26.91
2023-08-11T08:12:48.739Z,27.68
2023-08-11T08:15:18.126Z,28.44
2023-08-11T08:17:45.740Z,28.61
2023-08-11T08:20:14.814Z,28.68
2023-08-11T08:22:42.523Z,28.69
2023-08-11T08:25:10.521Z,28.64
2023-08-11T08:27:40.649Z,29.11
2023-08-11T08:30:11.444Z,30.14
2023-08-11T08:32:40.972Z,29.68
2023-08-11T08:35:10.369Z,28.90
2023-08-11T08:37:37.651Z,29.51
2023-08-11T08:40:05.617Z,30.18
2023-08-11T08:42:33.146Z,29.24
2023-08-11T08:45:01.319Z,29.68
2023-08-11T08:47:29.824Z,29.35
2023-08-11T08:49:59.844Z,30.08
2023-08-11T08:52:27.868Z,30.45
2023-08-11T08:54:55.211Z,28.88
2023-08-11T08:57:27.858Z,28.02
2023-08-11T08:59:57.861Z,27.96
2023-08-11T09:02:29.194Z,27.32
2023-08-11T09:04:56.779Z,27.78
2023-08-11T09:07:24.062Z,28.57
2023-08-11T09:09:51.365Z,28.13
2023-08-11T09:12:18.670Z,28.48
2023-08-11T09:14:46.117Z,28.90
2023-08-11T09:17:13.770Z,28.65
2023-08-11T09:19:45.297Z,27.70
2023-08-11T09:22:12.661Z,29.13
2023-08-11T09:24:41.722Z,28.72
2023-08-11T09:27:08.997Z,29.97
2023-08-11T09:29:37.197Z,30.44
2023-08-11T09:32:05.608Z,30.94
2023-08-11T09:34:32.845Z,30.52
2023-08-11T09:37:00.694Z,29.04
2023-08-11T09:39:30.317Z,29.08
2023-08-11T09:41:57.592Z,29.17
2023-08-11T09:44:24.887Z,28.63
2023-08-11T09:46:52.864Z,28.84
2023-08-11T09:49:20.119Z,29.24
2023-08-11T09:51:50.129Z,29.38
2023-08-11T09:54:20.200Z,29.42
2023-08-11T09:56:49.336Z,27.71
2023-08-11T09:59:20.523Z,27.96
2023-08-11T10:01:49.873Z,28.08
2023-08-11T10:04:39.556Z,28.50
2023-08-11T10:07:14.348Z,29.90
2023-08-11T10:09:45.267Z,28.30
2023-08-11T10:12:13.581Z,29.38
2023-08-11T10:14:42.176Z,29.50
2023-08-11T10:17:13.768Z,29.00
2023-08-11T10:19:41.396Z,28.07
2023-08-11T10:22:09.701Z,28.01
2023-08-11T10:24:38.801Z,28.37
2023-08-11T10:27:09.070Z,28.11
2023-08-11T10:29:39.406Z,28.79
2023-08-11T10:32:06.853Z,29.91
2023-08-11T10:34:34.535Z,29.20
2023-08-11T10:37:02.323Z,29.23
2023-08-11T10:39:29.538Z,29.04
2023-08-11T10:41:58.426Z,29.78
2023-08-11T10:44:30.119Z,29.76
2023-08-11T10:47:02.991Z,28.74
2023-08-11T10:49:35.856Z,29.42
2023-08-11T10:52:04.835Z,29.50
2023-08-11T10:54:32.626Z,29.50
2023-08-11T10:57:04.175Z,29.76
2023-08-11T10:59:34.335Z,29.94
2023-08-11T11:02:02.757Z,28.98
2023-08-11T11:04:34.482Z,28.72
2023-08-11T11:07:02.688Z,29.49
2023-08-11T11:09:30.802Z,28.94
2023-08-11T11:11:58.559Z,29.21
2023-08-11T11:14:30.015Z,28.71
2023-08-11T11:17:00.589Z,29.02
2023-08-11T11:19:28.312Z,29.50
2023-08-11T11:21:55.938Z,28.87
2023-08-11T11:24:23.464Z,28.74
2023-08-11T11:26:50.786Z,27.82
2023-08-11T11:29:24.573Z,29.09
2023-08-11T11:31:52.634Z,29.41
2023-08-11T11:34:22.208Z,29.41
2023-08-11T11:36:49.877Z,29.53
2023-08-11T11:39:17.200Z,29.42
2023-08-11T11:41:44.495Z,28.67
2023-08-11T11:44:11.892Z,28.17
2023-08-11T11:46:39.341Z,28.22
2023-08-11T11:49:19.595Z,28.50
2023-08-11T11:51:56.268Z,29.48
2023-08-11T11:54:23.632Z,28.99
2023-08-11T11:57:03.381Z,29.13
2023-08-11T11:59:33.740Z,28.68
2023-08-11T12:02:02.209Z,27.95
2023-08-11T12:04:30.086Z,28.54
2023-08-11T12:06:57.895Z,28.63
2023-08-11T12:09:25.309Z,28.78
2023-08-11T12:11:56.542Z,28.69
2023-08-11T12:14:27.860Z,28.28
2023-08-11T12:16:57.193Z,28.62
2023-08-11T12:19:24.547Z,28.09
2023-08-11T12:21:52.008Z,28.36
2023-08-11T12:24:20.317Z,28.91
2023-08-11T12:26:47.593Z,29.13
2023-08-11T12:29:14.882Z,29.27
2023-08-11T12:31:42.149Z,28.74
2023-08-11T12:34:09.349Z,28.47
2023-08-11T12:36:36.571Z,29.25
2023-08-11T12:39:04.465Z,28.61
2023-08-11T12:41:31.742Z,28.09
2023-08-11T12:43:58.941Z,28.48
2023-08-11T12:46:26.348Z,28.91
2023-08-11T12:48:53.588Z,28.54
2023-08-11T12:51:20.776Z,28.36
2023-08-11T12:53:48.032Z,28.84
2023-08-11T12:56:15.269Z,29.11
2023-08-11T12:58:43.754Z,28.92
2023-08-11T13:01:11.247Z,28.98
2023-08-11T13:03:38.597Z,29.09
2023-08-11T13:06:06.079Z,28.65
2023-08-11T13:08:33.362Z,29.05
2023-08-11T13:11:00.574Z,28.98
2023-08-11T13:13:27.788Z,29.63
2023-08-11T13:15:55.039Z,29.26
2023-08-11T13:18:22.320Z,29.23
2023-08-11T13:20:49.507Z,29.27
2023-08-11T13:23:16.718Z,29.37
2023-08-11T13:25:43.997Z,29.24
2023-08-11T13:28:11.193Z,28.93
2023-08-11T13:30:40.305Z,29.38
2023-08-11T13:33:08.886Z,29.19
2023-08-11T13:35:36.116Z,28.96
2023-08-11T13:38:03.425Z,28.82
2023-08-11T13:40:30.607Z,28.99
2023-08-11T13:42:57.791Z,28.65
2023-08-11T13:45:25.001Z,28.73
2023-08-11T13:47:52.237Z,28.70
2023-08-11T13:50:19.446Z,28.66
2023-08-11T13:52:46.702Z,28.63
2023-08-11T13:55:15.568Z,28.93
2023-08-11T13:57:45.833Z,28.37
2023-08-11T14:00:13.804Z,28.71
2023-08-11T14:02:41.793Z,28.56
2023-08-11T14:05:09.394Z,28.85
2023-08-11T14:07:36.791Z,28.97
2023-08-11T14:10:04.447Z,28.87
2023-08-11T14:12:31.614Z,28.60
2023-08-11T14:14:58.859Z,28.38
2023-08-11T14:17:26.128Z,28.16
2023-08-11T14:19:53.312Z,28.61
2023-08-11T14:22:20.523Z,28.71
2023-08-11T14:24:47.793Z,28.18
2023-08-11T14:27:15.032Z,28.58
2023-08-11T14:29:42.311Z,28.35
2023-08-11T14:32:24.818Z,28.70
2023-08-11T14:34:53.285Z,28.43
2023-08-11T14:37:22.110Z,28.66
2023-08-11T14:39:49.450Z,28.51
2023-08-11T14:42:17.772Z,28.60
2023-08-11T14:44:45.016Z,28.47
2023-08-11T14:47:14.950Z,28.51
2023-08-11T14:49:44.438Z,28.71
2023-08-11T14:52:13.449Z,28.74
2023-08-11T14:54:41.747Z,28.61
2023-08-11T14:57:10.657Z,28.53
2023-08-11T14:59:39.498Z,28.42
2023-08-11T15:02:07.213Z,28.37
2023-08-11T15:04:35.180Z,28.21
2023-08-11T15:07:02.398Z,28.37
2023-08-11T15:09:29.711Z,28.44
2023-08-11T15:11:56.953Z,28.40
2023-08-11T15:14:24.222Z,28.19
2023-08-11T15:16:51.468Z,28.30
2023-08-11T15:19:18.856Z,28.24
2023-08-11T15:21:46.087Z,28.11
2023-08-11T15:24:13.277Z,28.25
2023-08-11T15:26:40.787Z,28.16
2023-08-11T15:29:08.027Z,28.04
2023-08-11T15:31:35.394Z,27.92
2023-08-11T15:34:02.695Z,28.05
2023-08-11T15:36:29.964Z,27.94
2023-08-11T15:38:57.225Z,28.21
2023-08-11T15:41:24.487Z,28.10
2023-08-11T15:43:52.207Z,28.19
2023-08-11T15:46:19.544Z,28.23
2023-08-11T15:48:46.790Z,28.27
2023-08-11T15:51:14.063Z,28.24
2023-08-11T15:53:41.245Z,28.22
2023-08-11T15:56:08.954Z,28.19
2023-08-11T15:58:37.400Z,28.11
2023-08-11T16:01:05.411Z,28.06
2023-08-11T16:03:33.145Z,28.18
2023-08-11T16:06:00.494Z,28.18
2023-08-11T16:08:27.932Z,28.15
2023-08-11T16:10:55.259Z,28.19
2023-08-11T16:13:22.541Z,28.29
2023-08-11T16:15:50.500Z,28.17
2023-08-11T16:18:18.029Z,28.04
2023-08-11T16:20:45.238Z,28.23
2023-08-11T16:23:12.522Z,28.20
2023-08-11T16:25:39.814Z,28.12
2023-08-11T16:28:07.046Z,28.08
2023-08-11T16:30:34.237Z,28.18
2023-08-11T16:33:01.444Z,28.12
2023-08-11T16:35:28.670Z,28.13
2023-08-11T16:37:55.912Z,28.06
2023-08-11T16:40:23.136Z,28.03
2023-08-11T16:42:50.312Z,28.11
2023-08-11T16:45:17.512Z,28.07
2023-08-11T16:47:44.708Z,28.05
2023-08-11T16:50:12.059Z,28.02
2023-08-11T16:52:39.240Z,28.02
2023-08-11T16:55:07.292Z,28.00
2023-08-11T16:57:35.292Z,27.97
2023-08-11T17:00:02.685Z,27.97
2023-08-11T17:02:30.057Z,27.96
2023-08-11T17:04:57.376Z,27.90
2023-08-11T17:07:24.736Z,27.93
2023-08-11T17:09:51.950Z,27.88
2023-08-11T17:12:19.375Z,27.77
2023-08-11T17:14:46.747Z,27.74
2023-08-11T17:17:14.013Z,27.69
2023-08-11T17:19:41.298Z,27.70
2023-08-11T17:22:11.713Z,27.71
2023-08-11T17:24:39.584Z,27.73
2023-08-11T17:27:07.185Z,27.72
2023-08-11T17:29:34.537Z,27.82
2023-08-11T17:32:01.749Z,27.81
2023-08-11T17:34:29.015Z,27.64
2023-08-11T17:36:56.282Z,27.61
2023-08-11T17:39:23.703Z,27.59
2023-08-11T17:42:02.986Z,27.57
2023-08-11T17:44:30.293Z,27.58
2023-08-11T17:46:58.093Z,27.51
2023-08-11T17:49:25.394Z,27.49
2023-08-11T17:51:52.574Z,27.50
2023-08-11T17:54:19.967Z,27.39
2023-08-11T17:56:47.129Z,27.25
2023-08-11T17:59:14.320Z,27.33
2023-08-11T18:01:41.639Z,27.12
2023-08-11T18:04:09.267Z,27.11
2023-08-11T18:06:37.365Z,27.07
2023-08-11T18:09:05.319Z,26.67
2023-08-11T18:11:35.866Z,26.97
2023-08-11T18:14:03.844Z,26.72
2023-08-11T18:16:32.098Z,26.48
2023-08-11T18:19:00.547Z,26.30
2023-08-11T18:21:27.898Z,26.37
2023-08-11T18:23:55.174Z,26.41
2023-08-11T18:26:22.916Z,26.10
2023-08-11T18:28:50.191Z,26.12
2023-08-11T18:31:17.546Z,26.10
2023-08-11T18:33:44.786Z,25.70
2023-08-11T18:36:12.021Z,25.38
2023-08-11T18:38:39.464Z,25.36
2023-08-11T18:41:06.692Z,25.53
2023-08-11T18:43:33.904Z,25.49
2023-08-11T18:46:07.879Z,25.39
2023-08-11T18:48:35.128Z,24.98
2023-08-11T18:51:02.472Z,24.61
2023-08-11T18:53:29.724Z,24.46
2023-08-11T18:55:57.699Z,24.41
2023-08-11T18:58:24.940Z,24.45
2023-08-11T19:00:52.200Z,24.53
2023-08-11T19:03:19.580Z,24.59
2023-08-11T19:05:46.896Z,24.24
2023-08-11T19:08:14.077Z,24.51
2023-08-11T19:10:41.342Z,24.68
2023-08-11T19:13:08.537Z,24.34
2023-08-11T19:15:36.037Z,24.17
2023-08-11T19:18:03.485Z,24.26
2023-08-11T19:20:30.702Z,24.15
2023-08-11T19:22:57.961Z,24.14
2023-08-11T19:25:25.244Z,24.12
2023-08-11T19:27:52.473Z,23.82
2023-08-11T19:30:19.675Z,24.08
2023-08-11T19:32:46.889Z,24.25
2023-08-11T19:35:14.174Z,23.87
2023-08-11T19:37:41.388Z,23.67
2023-08-11T19:40:08.970Z,23.95
2023-08-11T19:42:36.208Z,24.07
2023-08-11T19:45:04.800Z,23.95
2023-08-11T19:47:32.086Z,23.66
2023-08-11T19:49:59.556Z,23.78
2023-08-11T19:52:26.746Z,23.95
2023-08-11T19:54:53.935Z,24.10
2023-08-11T19:57:21.134Z,23.52
2023-08-11T19:59:49.427Z,23.33
2023-08-11T20:02:16.661Z,23.17
2023-08-11T20:04:43.922Z,23.45
2023-08-11T20:07:11.408Z,23.42
2023-08-11T20:09:38.914Z,23.00
2023-08-11T20:12:06.408Z,22.77
2023-08-11T20:14:33.626Z,23.03
2023-08-11T20:17:02.507Z,23.24
2023-08-11T20:19:30.188Z,23.47
2023-08-11T20:21:57.371Z,23.33
2023-08-11T20:24:24.560Z,23.35
2023-08-11T20:26:56.923Z,23.28
2023-08-11T20:29:24.976Z,22.93
2023-08-11T20:31:55.765Z,23.23
2023-08-11T20:34:24.069Z,22.54
2023-08-11T20:36:51.548Z,22.96
2023-08-11T20:39:22.538Z,22.52
2023-08-11T20:41:50.914Z,22.17
2023-08-11T20:44:18.243Z,22.65
2023-08-11T20:46:45.447Z,23.01
2023-08-11T20:49:12.701Z,23.18
2023-08-11T20:51:39.950Z,22.46
2023-08-11T20:54:07.200Z,22.11
2023-08-11T20:56:35.511Z,22.33
2023-08-11T20:59:02.826Z,21.96
2023-08-11T21:01:30.061Z,22.52
2023-08-11T21:03:57.450Z,22.43
2023-08-11T21:06:24.664Z,22.51
2023-08-11T21:08:52.297Z,22.57
2023-08-11T21:11:19.650Z,21.98
2023-08-11T21:13:46.970Z,21.72
2023-08-11T21:16:17.071Z,22.06
2023-08-11T21:18:44.417Z,21.88
2023-08-11T21:21:11.630Z,22.37
2023-08-11T21:23:38.847Z,22.40
2023-08-11T21:26:06.122Z,22.20
2023-08-11T21:28:33.305Z,21.97
2023-08-11T21:31:15.668Z,21.62
2023-08-11T21:33:45.596Z,22.05
2023-08-11T21:36:12.816Z,21.43
2023-08-11T21:38:40.484Z,21.61
2023-08-11T21:41:07.691Z,22.05
2023-08-11T21:43:34.918Z,21.36
2023-08-11T21:46:02.225Z,21.24
2023-08-11T21:48:29.430Z,21.20
2023-08-11T21:50:57.014Z,21.44
2023-08-11T21:53:24.403Z,21.61
2023-08-11T21:55:52.160Z,21.59
2023-08-11T21:58:19.502Z,20.96
2023-08-11T22:00:49.448Z,21.65
2023-08-11T22:03:17.519Z,21.44
2023-08-11T22:05:44.772Z,21.41
2023-08-11T22:08:12.007Z,21.26
2023-08-11T22:10:39.242Z,21.20
2023-08-11T22:13:06.643Z,21.32
2023-08-11T22:15:34.139Z,21.38
2023-08-11T22:18:01.532Z,21.40
2023-08-11T22:20:29.681Z,21.36
2023-08-11T22:22:56.898Z,21.43
2023-08-11T22:25:24.445Z,21.38
2023-08-11T22:27:51.734Z,21.50
2023-08-11T22:30:18.936Z,21.32
2023-08-11T22:32:46.167Z,21.43
2023-08-11T22:35:13.338Z,21.38
2023-08-11T22:37:41.167Z,21.25
2023-08-11T22:40:09.615Z,21.10
2023-08-11T22:42:36.869Z,21.04
2023-08-11T22:45:04.709Z,21.34
2023-08-11T22:47:31.943Z,21.00
2023-08-11T22:49:59.185Z,20.91
2023-08-11T22:52:26.415Z,21.35
2023-08-11T22:54:53.661Z,21.42
2023-08-11T22:57:22.090Z,21.10
2023-08-11T22:59:50.117Z,21.60
2023-08-11T23:02:17.580Z,21.28
2023-08-11T23:04:44.869Z,21.38
2023-08-11T23:07:12.728Z,21.52
2023-08-11T23:09:40.203Z,21.35
2023-08-11T23:12:08.107Z,21.62
2023-08-11T23:14:35.332Z,21.59
2023-08-11T23:17:02.561Z,21.84
2023-08-11T23:19:29.902Z,21.82
2023-08-11T23:21:57.175Z,21.50
2023-08-11T23:24:24.456Z,20.65
2023-08-11T23:26:51.660Z,20.97
2023-08-11T23:29:18.838Z,20.57
2023-08-11T23:31:46.089Z,21.22
2023-08-11T23:34:13.357Z,20.95
2023-08-11T23:36:40.547Z,21.60
2023-08-11T23:39:07.822Z,21.80
2023-08-11T23:41:35.153Z,21.50
2023-08-11T23:44:02.377Z,21.33
2023-08-11T23:46:29.598Z,21.73
2023-08-11T23:48:56.814Z,21.74
2023-08-11T23:51:24.098Z,21.85
2023-08-11T23:53:51.479Z,21.78
2023-08-11T23:56:18.795Z,21.88
2023-08-11T23:58:45.991Z,21.98
